sensor_id;sensor_type;location;lat;lon;timestamp;temperature;humidity
53599;DHT22;39485;45.702;11.364;2022-12-20T00:01:15;1.40;99.90
53599;DHT22;39485;45.702;11.364;2022-12-20T00:03:41;1.40;99.90
53599;DHT22;39485;45.702;11.364;2022-12-20T00:06:07;1.40;99.90
53599;DHT22;39485;45.702;11.364;2022-12-20T00:08:33;1.40;99.90
53599;DHT22;39485;45.702;11.364;2022-12-20T00:11:03;1.40;99.90
53599;DHT22;39485;45.702;11.364;2022-12-20T00:13:30;1.40;99.90
53599;DHT22;39485;45.702;11.364;2022-12-20T00:16:14;1.40;99.90
53599;DHT22;39485;45.702;11.364;2022-12-20T00:18:40;1.40;99.90
53599;DHT22;39485;45.702;11.364;2022-12-20T00:21:09;1.40;99.90
53599;DHT22;39485;45.702;11.364;2022-12-20T00:23:36;1.40;99.90
53599;DHT22;39485;45.702;11.364;2022-12-20T00:26:10;1.40;99.90
53599;DHT22;39485;45.702;11.364;2022-12-20T00:28:37;1.40;99.90
53599;DHT22;39485;45.702;11.364;2022-12-20T00:31:03;1.30;99.90
53599;DHT22;39485;45.702;11.364;2022-12-20T00:33:30;1.30;99.90
53599;DHT22;39485;45.702;11.364;2022-12-20T00:35:56;1.30;99.90
53599;DHT22;39485;45.702;11.364;2022-12-20T00:38:23;1.40;99.90
53599;DHT22;39485;45.702;11.364;2022-12-20T00:41:20;1.30;99.90
53599;DHT22;39485;45.702;11.364;2022-12-20T00:43:47;1.30;99.90
53599;DHT22;39485;45.702;11.364;2022-12-20T00:46:14;1.30;99.90
53599;DHT22;39485;45.702;11.364;2022-12-20T00:48:41;1.40;99.90
53599;DHT22;39485;45.702;11.364;2022-12-20T00:51:13;1.30;99.90
53599;DHT22;39485;45.702;11.364;2022-12-20T00:53:39;1.30;99.90
53599;DHT22;39485;45.702;11.364;2022-12-20T00:56:06;1.30;99.90
53599;DHT22;39485;45.702;11.364;2022-12-20T00:58:33;1.30;99.90
53599;DHT22;39485;45.702;11.364;2022-12-20T01:01:00;1.30;99.90
53599;DHT22;39485;45.702;11.364;2022-12-20T01:03:26;1.30;99.90
53599;DHT22;39485;45.702;11.364;2022-12-20T01:05:54;1.30;99.90
53599;DHT22;39485;45.702;11.364;2022-12-20T01:08:21;1.30;99.90
53599;DHT22;39485;45.702;11.364;2022-12-20T01:10:57;1.30;99.90
53599;DHT22;39485;45.702;11.364;2022-12-20T01:13:23;1.30;99.90
53599;DHT22;39485;45.702;11.364;2022-12-20T01:15:49;1.30;99.90
53599;DHT22;39485;45.702;11.364;2022-12-20T01:18:14;1.30;99.90
53599;DHT22;39485;45.702;11.364;2022-12-20T01:20:40;1.30;99.90
53599;DHT22;39485;45.702;11.364;2022-12-20T01:23:06;1.30;99.90
53599;DHT22;39485;45.702;11.364;2022-12-20T01:25:31;1.30;99.90
53599;DHT22;39485;45.702;11.364;2022-12-20T01:27:57;1.30;99.90
53599;DHT22;39485;45.702;11.364;2022-12-20T01:30:23;1.30;99.90
53599;DHT22;39485;45.702;11.364;2022-12-20T01:32:48;1.30;99.90
53599;DHT22;39485;45.702;11.364;2022-12-20T01:35:14;1.30;99.90
53599;DHT22;39485;45.702;11.364;2022-12-20T01:37:40;1.30;99.90
53599;DHT22;39485;45.702;11.364;2022-12-20T01:40:06;1.30;99.90
53599;DHT22;39485;45.702;11.364;2022-12-20T01:42:35;1.20;99.90
53599;DHT22;39485;45.702;11.364;2022-12-20T01:45:00;1.20;99.90
53599;DHT22;39485;45.702;11.364;2022-12-20T01:47:29;1.20;99.90
53599;DHT22;39485;45.702;11.364;2022-12-20T01:49:56;1.20;99.90
53599;DHT22;39485;45.702;11.364;2022-12-20T01:52:34;1.20;99.90
53599;DHT22;39485;45.702;11.364;2022-12-20T01:57:43;1.20;99.90
53599;DHT22;39485;45.702;11.364;2022-12-20T02:00:11;1.20;99.90
53599;DHT22;39485;45.702;11.364;2022-12-20T02:02:37;1.20;99.90
53599;DHT22;39485;45.702;11.364;2022-12-20T02:05:04;1.20;99.90
53599;DHT22;39485;45.702;11.364;2022-12-20T02:07:30;1.30;99.90
53599;DHT22;39485;45.702;11.364;2022-12-20T02:10:00;1.30;99.90
53599;DHT22;39485;45.702;11.364;2022-12-20T02:12:32;1.20;99.90
53599;DHT22;39485;45.702;11.364;2022-12-20T02:29:24;1.20;99.90
53599;DHT22;39485;45.702;11.364;2022-12-20T02:32:24;1.20;99.90
53599;DHT22;39485;45.702;11.364;2022-12-20T02:34:51;1.20;99.90
53599;DHT22;39485;45.702;11.364;2022-12-20T02:37:16;1.20;99.90
53599;DHT22;39485;45.702;11.364;2022-12-20T02:39:43;1.20;99.90
53599;DHT22;39485;45.702;11.364;2022-12-20T02:42:11;1.20;99.90
53599;DHT22;39485;45.702;11.364;2022-12-20T02:44:43;1.20;99.90
53599;DHT22;39485;45.702;11.364;2022-12-20T02:47:45;1.20;99.90
53599;DHT22;39485;45.702;11.364;2022-12-20T02:50:16;1.20;99.90
53599;DHT22;39485;45.702;11.364;2022-12-20T02:52:42;1.20;99.90
53599;DHT22;39485;45.702;11.364;2022-12-20T02:55:09;1.20;99.90
53599;DHT22;39485;45.702;11.364;2022-12-20T02:57:47;1.20;99.90
53599;DHT22;39485;45.702;11.364;2022-12-20T03:00:18;1.20;99.90
53599;DHT22;39485;45.702;11.364;2022-12-20T03:02:46;1.20;99.90
53599;DHT22;39485;45.702;11.364;2022-12-20T03:05:33;1.20;99.90
53599;DHT22;39485;45.702;11.364;2022-12-20T03:07:59;1.20;99.90
53599;DHT22;39485;45.702;11.364;2022-12-20T03:10:25;1.20;99.90
53599;DHT22;39485;45.702;11.364;2022-12-20T03:12:51;1.10;99.90
53599;DHT22;39485;45.702;11.364;2022-12-20T03:15:17;1.10;99.90
53599;DHT22;39485;45.702;11.364;2022-12-20T03:17:42;1.10;99.90
53599;DHT22;39485;45.702;11.364;2022-12-20T03:20:08;1.10;99.90
53599;DHT22;39485;45.702;11.364;2022-12-20T03:22:36;1.10;99.90
53599;DHT22;39485;45.702;11.364;2022-12-20T03:25:01;1.10;99.90
53599;DHT22;39485;45.702;11.364;2022-12-20T03:27:27;1.10;99.90
53599;DHT22;39485;45.702;11.364;2022-12-20T03:29:53;1.10;99.90
53599;DHT22;39485;45.702;11.364;2022-12-20T03:32:19;1.10;99.90
53599;DHT22;39485;45.702;11.364;2022-12-20T03:34:45;1.10;99.90
53599;DHT22;39485;45.702;11.364;2022-12-20T03:37:12;1.20;99.90
53599;DHT22;39485;45.702;11.364;2022-12-20T03:39:37;1.20;99.90
53599;DHT22;39485;45.702;11.364;2022-12-20T03:42:03;1.20;99.90
53599;DHT22;39485;45.702;11.364;2022-12-20T03:44:29;1.10;99.90
53599;DHT22;39485;45.702;11.364;2022-12-20T03:46:54;1.10;99.90
53599;DHT22;39485;45.702;11.364;2022-12-20T03:49:20;1.10;99.90
53599;DHT22;39485;45.702;11.364;2022-12-20T03:51:46;1.10;99.90
53599;DHT22;39485;45.702;11.364;2022-12-20T03:54:11;1.10;99.90
53599;DHT22;39485;45.702;11.364;2022-12-20T03:56:37;1.10;99.90
53599;DHT22;39485;45.702;11.364;2022-12-20T03:59:03;1.00;99.90
53599;DHT22;39485;45.702;11.364;2022-12-20T04:01:29;1.00;99.90
53599;DHT22;39485;45.702;11.364;2022-12-20T04:03:55;1.10;99.90
53599;DHT22;39485;45.702;11.364;2022-12-20T04:06:22;1.00;99.90
53599;DHT22;39485;45.702;11.364;2022-12-20T04:08:48;1.10;99.90
53599;DHT22;39485;45.702;11.364;2022-12-20T04:11:14;1.10;99.90
53599;DHT22;39485;45.702;11.364;2022-12-20T04:13:50;1.10;99.90
53599;DHT22;39485;45.702;11.364;2022-12-20T04:16:20;1.10;99.90
53599;DHT22;39485;45.702;11.364;2022-12-20T04:18:46;1.10;99.90
53599;DHT22;39485;45.702;11.364;2022-12-20T04:21:12;1.10;99.90
53599;DHT22;39485;45.702;11.364;2022-12-20T04:23:39;1.10;99.90
53599;DHT22;39485;45.702;11.364;2022-12-20T04:26:07;1.10;99.90
53599;DHT22;39485;45.702;11.364;2022-12-20T04:28:33;1.10;99.90
53599;DHT22;39485;45.702;11.364;2022-12-20T04:31:00;1.00;99.90
53599;DHT22;39485;45.702;11.364;2022-12-20T04:33:26;1.10;99.90
53599;DHT22;39485;45.702;11.364;2022-12-20T04:35:52;1.10;99.90
53599;DHT22;39485;45.702;11.364;2022-12-20T04:38:20;1.00;99.90
53599;DHT22;39485;45.702;11.364;2022-12-20T04:40:48;1.00;99.90
53599;DHT22;39485;45.702;11.364;2022-12-20T04:43:15;1.00;99.90
53599;DHT22;39485;45.702;11.364;2022-12-20T04:45:41;1.00;99.90
53599;DHT22;39485;45.702;11.364;2022-12-20T04:48:08;1.00;99.90
53599;DHT22;39485;45.702;11.364;2022-12-20T04:50:34;1.00;99.90
53599;DHT22;39485;45.702;11.364;2022-12-20T04:53:00;1.00;99.90
53599;DHT22;39485;45.702;11.364;2022-12-20T04:55:44;1.00;99.90
53599;DHT22;39485;45.702;11.364;2022-12-20T04:58:10;1.00;99.90
53599;DHT22;39485;45.702;11.364;2022-12-20T05:00:35;1.00;99.90
53599;DHT22;39485;45.702;11.364;2022-12-20T05:03:01;1.00;99.90
53599;DHT22;39485;45.702;11.364;2022-12-20T05:05:27;1.00;99.90
53599;DHT22;39485;45.702;11.364;2022-12-20T05:07:53;1.00;99.90
53599;DHT22;39485;45.702;11.364;2022-12-20T05:10:19;1.00;99.90
53599;DHT22;39485;45.702;11.364;2022-12-20T05:12:44;1.00;99.90
53599;DHT22;39485;45.702;11.364;2022-12-20T05:15:11;1.00;99.90
53599;DHT22;39485;45.702;11.364;2022-12-20T05:17:36;1.00;99.90
53599;DHT22;39485;45.702;11.364;2022-12-20T05:20:03;0.90;99.90
53599;DHT22;39485;45.702;11.364;2022-12-20T05:22:29;0.90;99.90
53599;DHT22;39485;45.702;11.364;2022-12-20T05:25:14;0.90;99.90
53599;DHT22;39485;45.702;11.364;2022-12-20T05:27:58;0.90;99.90
53599;DHT22;39485;45.702;11.364;2022-12-20T05:30:24;0.90;99.90
53599;DHT22;39485;45.702;11.364;2022-12-20T05:32:50;0.90;99.90
53599;DHT22;39485;45.702;11.364;2022-12-20T05:35:16;0.90;99.90
53599;DHT22;39485;45.702;11.364;2022-12-20T05:37:42;0.90;99.90
53599;DHT22;39485;45.702;11.364;2022-12-20T05:40:08;0.90;99.90
53599;DHT22;39485;45.702;11.364;2022-12-20T05:42:35;0.90;99.90
53599;DHT22;39485;45.702;11.364;2022-12-20T05:45:01;0.90;99.90
53599;DHT22;39485;45.702;11.364;2022-12-20T05:47:27;0.90;99.90
53599;DHT22;39485;45.702;11.364;2022-12-20T05:49:53;0.90;99.90
53599;DHT22;39485;45.702;11.364;2022-12-20T05:52:20;0.90;99.90
53599;DHT22;39485;45.702;11.364;2022-12-20T05:54:45;0.90;99.90
53599;DHT22;39485;45.702;11.364;2022-12-20T05:57:11;0.90;99.90
53599;DHT22;39485;45.702;11.364;2022-12-20T05:59:39;0.90;99.90
53599;DHT22;39485;45.702;11.364;2022-12-20T06:02:05;0.90;99.90
53599;DHT22;39485;45.702;11.364;2022-12-20T06:04:31;0.90;99.90
53599;DHT22;39485;45.702;11.364;2022-12-20T06:06:57;0.90;99.90
53599;DHT22;39485;45.702;11.364;2022-12-20T06:09:24;0.90;99.90
53599;DHT22;39485;45.702;11.364;2022-12-20T06:11:49;0.90;99.90
53599;DHT22;39485;45.702;11.364;2022-12-20T06:14:15;0.90;99.90
53599;DHT22;39485;45.702;11.364;2022-12-20T06:16:41;0.90;99.90
53599;DHT22;39485;45.702;11.364;2022-12-20T06:19:06;0.90;99.90
53599;DHT22;39485;45.702;11.364;2022-12-20T06:21:33;0.90;99.90
53599;DHT22;39485;45.702;11.364;2022-12-20T06:23:59;0.90;99.90
53599;DHT22;39485;45.702;11.364;2022-12-20T06:26:26;0.90;99.90
53599;DHT22;39485;45.702;11.364;2022-12-20T06:28:52;0.90;99.90
53599;DHT22;39485;45.702;11.364;2022-12-20T06:31:19;0.90;99.90
53599;DHT22;39485;45.702;11.364;2022-12-20T06:33:45;0.90;99.90
53599;DHT22;39485;45.702;11.364;2022-12-20T06:36:10;0.90;99.90
53599;DHT22;39485;45.702;11.364;2022-12-20T06:38:36;0.90;99.90
53599;DHT22;39485;45.702;11.364;2022-12-20T06:41:02;0.90;99.90
53599;DHT22;39485;45.702;11.364;2022-12-20T06:43:28;0.90;99.90
53599;DHT22;39485;45.702;11.364;2022-12-20T06:45:53;0.90;99.90
53599;DHT22;39485;45.702;11.364;2022-12-20T06:48:19;0.90;99.90
53599;DHT22;39485;45.702;11.364;2022-12-20T06:50:47;0.90;99.90
53599;DHT22;39485;45.702;11.364;2022-12-20T06:53:13;0.90;99.90
53599;DHT22;39485;45.702;11.364;2022-12-20T06:55:39;0.90;99.90
53599;DHT22;39485;45.702;11.364;2022-12-20T06:58:04;0.90;99.90
53599;DHT22;39485;45.702;11.364;2022-12-20T07:00:31;0.90;99.90
53599;DHT22;39485;45.702;11.364;2022-12-20T07:02:56;0.90;99.90
53599;DHT22;39485;45.702;11.364;2022-12-20T07:05:22;0.90;99.90
53599;DHT22;39485;45.702;11.364;2022-12-20T07:07:48;0.90;99.90
53599;DHT22;39485;45.702;11.364;2022-12-20T07:10:14;0.90;99.90
53599;DHT22;39485;45.702;11.364;2022-12-20T07:12:39;0.90;99.90
53599;DHT22;39485;45.702;11.364;2022-12-20T07:15:06;0.90;99.90
53599;DHT22;39485;45.702;11.364;2022-12-20T07:17:32;0.90;99.90
53599;DHT22;39485;45.702;11.364;2022-12-20T07:19:59;0.90;99.90
53599;DHT22;39485;45.702;11.364;2022-12-20T07:22:25;0.90;99.90
53599;DHT22;39485;45.702;11.364;2022-12-20T07:24:50;0.90;99.90
53599;DHT22;39485;45.702;11.364;2022-12-20T07:27:16;0.90;99.90
53599;DHT22;39485;45.702;11.364;2022-12-20T07:29:42;0.90;99.90
53599;DHT22;39485;45.702;11.364;2022-12-20T07:32:08;1.00;99.90
53599;DHT22;39485;45.702;11.364;2022-12-20T07:34:36;1.00;99.90
53599;DHT22;39485;45.702;11.364;2022-12-20T07:37:02;1.00;99.90
53599;DHT22;39485;45.702;11.364;2022-12-20T07:39:27;1.00;99.90
53599;DHT22;39485;45.702;11.364;2022-12-20T07:41:54;1.00;99.90
53599;DHT22;39485;45.702;11.364;2022-12-20T07:44:20;1.00;99.90
53599;DHT22;39485;45.702;11.364;2022-12-20T07:46:46;1.10;99.90
53599;DHT22;39485;45.702;11.364;2022-12-20T07:49:12;1.10;99.90
53599;DHT22;39485;45.702;11.364;2022-12-20T07:51:51;1.10;99.90
53599;DHT22;39485;45.702;11.364;2022-12-20T07:54:45;1.10;99.90
53599;DHT22;39485;45.702;11.364;2022-12-20T07:57:39;1.20;99.90
53599;DHT22;39485;45.702;11.364;2022-12-20T08:00:03;1.20;99.90
53599;DHT22;39485;45.702;11.364;2022-12-20T08:02:34;1.30;99.90
53599;DHT22;39485;45.702;11.364;2022-12-20T08:05:03;1.30;99.90
53599;DHT22;39485;45.702;11.364;2022-12-20T08:07:30;1.30;99.90
53599;DHT22;39485;45.702;11.364;2022-12-20T08:09:56;1.40;99.90
53599;DHT22;39485;45.702;11.364;2022-12-20T08:12:23;1.40;99.90
53599;DHT22;39485;45.702;11.364;2022-12-20T08:14:49;1.50;99.90
53599;DHT22;39485;45.702;11.364;2022-12-20T08:17:20;1.50;99.90
53599;DHT22;39485;45.702;11.364;2022-12-20T08:19:46;1.60;99.90
53599;DHT22;39485;45.702;11.364;2022-12-20T08:22:13;1.60;99.90
53599;DHT22;39485;45.702;11.364;2022-12-20T08:24:39;1.70;99.90
53599;DHT22;39485;45.702;11.364;2022-12-20T08:27:05;1.70;99.90
53599;DHT22;39485;45.702;11.364;2022-12-20T08:29:30;1.80;99.90
53599;DHT22;39485;45.702;11.364;2022-12-20T08:31:56;1.80;99.90
53599;DHT22;39485;45.702;11.364;2022-12-20T08:34:22;1.80;99.90
53599;DHT22;39485;45.702;11.364;2022-12-20T08:36:47;1.90;99.90
53599;DHT22;39485;45.702;11.364;2022-12-20T08:39:13;2.00;99.90
53599;DHT22;39485;45.702;11.364;2022-12-20T08:41:39;2.00;99.90
53599;DHT22;39485;45.702;11.364;2022-12-20T08:44:05;2.00;99.90
53599;DHT22;39485;45.702;11.364;2022-12-20T08:46:31;2.10;99.90
53599;DHT22;39485;45.702;11.364;2022-12-20T08:48:57;2.10;99.90
53599;DHT22;39485;45.702;11.364;2022-12-20T08:51:23;2.20;99.90
53599;DHT22;39485;45.702;11.364;2022-12-20T08:53:48;2.30;99.90
53599;DHT22;39485;45.702;11.364;2022-12-20T08:56:16;2.30;99.90
53599;DHT22;39485;45.702;11.364;2022-12-20T08:58:43;2.40;99.90
53599;DHT22;39485;45.702;11.364;2022-12-20T09:01:11;2.40;99.90
53599;DHT22;39485;45.702;11.364;2022-12-20T09:03:38;2.50;99.90
53599;DHT22;39485;45.702;11.364;2022-12-20T09:06:16;2.60;99.90
53599;DHT22;39485;45.702;11.364;2022-12-20T09:08:42;2.70;99.90
53599;DHT22;39485;45.702;11.364;2022-12-20T09:11:10;2.70;99.90
53599;DHT22;39485;45.702;11.364;2022-12-20T09:13:37;2.80;99.90
53599;DHT22;39485;45.702;11.364;2022-12-20T09:16:04;2.90;99.90
53599;DHT22;39485;45.702;11.364;2022-12-20T09:18:31;3.00;99.90
53599;DHT22;39485;45.702;11.364;2022-12-20T09:21:05;3.00;99.90
53599;DHT22;39485;45.702;11.364;2022-12-20T09:23:32;3.10;99.90
53599;DHT22;39485;45.702;11.364;2022-12-20T09:26:03;3.10;99.90
53599;DHT22;39485;45.702;11.364;2022-12-20T09:28:30;3.20;99.90
53599;DHT22;39485;45.702;11.364;2022-12-20T09:31:04;3.30;99.90
53599;DHT22;39485;45.702;11.364;2022-12-20T09:33:31;3.40;99.90
53599;DHT22;39485;45.702;11.364;2022-12-20T09:35:58;3.50;99.90
53599;DHT22;39485;45.702;11.364;2022-12-20T09:38:24;3.50;99.90
53599;DHT22;39485;45.702;11.364;2022-12-20T09:40:56;3.60;99.90
53599;DHT22;39485;45.702;11.364;2022-12-20T09:43:22;3.60;99.90
53599;DHT22;39485;45.702;11.364;2022-12-20T09:45:52;3.70;99.90
53599;DHT22;39485;45.702;11.364;2022-12-20T09:48:23;3.70;99.90
53599;DHT22;39485;45.702;11.364;2022-12-20T09:54:06;3.90;99.90
53599;DHT22;39485;45.702;11.364;2022-12-20T09:56:36;3.90;99.90
53599;DHT22;39485;45.702;11.364;2022-12-20T09:59:09;4.00;99.90
53599;DHT22;39485;45.702;11.364;2022-12-20T10:01:36;4.00;99.90
53599;DHT22;39485;45.702;11.364;2022-12-20T10:04:09;4.10;99.90
53599;DHT22;39485;45.702;11.364;2022-12-20T10:09:40;4.20;99.90
53599;DHT22;39485;45.702;11.364;2022-12-20T10:23:44;4.60;99.90
53599;DHT22;39485;45.702;11.364;2022-12-20T10:26:12;4.70;99.90
53599;DHT22;39485;45.702;11.364;2022-12-20T10:28:38;4.70;99.90
53599;DHT22;39485;45.702;11.364;2022-12-20T10:31:16;4.80;99.90
53599;DHT22;39485;45.702;11.364;2022-12-20T10:33:43;4.80;99.90
53599;DHT22;39485;45.702;11.364;2022-12-20T10:36:22;4.90;99.90
53599;DHT22;39485;45.702;11.364;2022-12-20T10:38:53;4.90;99.90
53599;DHT22;39485;45.702;11.364;2022-12-20T10:41:49;4.90;99.90
53599;DHT22;39485;45.702;11.364;2022-12-20T10:44:25;5.00;99.90
53599;DHT22;39485;45.702;11.364;2022-12-20T10:46:54;5.00;99.90
53599;DHT22;39485;45.702;11.364;2022-12-20T10:52:00;5.10;99.90
53599;DHT22;39485;45.702;11.364;2022-12-20T10:54:38;5.20;99.90
53599;DHT22;39485;45.702;11.364;2022-12-20T10:57:24;5.20;99.90
53599;DHT22;39485;45.702;11.364;2022-12-20T11:02:29;5.30;99.90
53599;DHT22;39485;45.702;11.364;2022-12-20T11:05:20;5.40;99.90
53599;DHT22;39485;45.702;11.364;2022-12-20T11:07:59;5.40;99.90
53599;DHT22;39485;45.702;11.364;2022-12-20T11:10:31;5.50;99.90
53599;DHT22;39485;45.702;11.364;2022-12-20T11:13:01;5.50;99.90
53599;DHT22;39485;45.702;11.364;2022-12-20T11:15:29;5.50;99.90
53599;DHT22;39485;45.702;11.364;2022-12-20T11:20:48;5.50;99.90
53599;DHT22;39485;45.702;11.364;2022-12-20T11:23:50;5.60;99.90
53599;DHT22;39485;45.702;11.364;2022-12-20T11:32:06;5.60;99.90
53599;DHT22;39485;45.702;11.364;2022-12-20T11:46:17;5.80;99.90
53599;DHT22;39485;45.702;11.364;2022-12-20T11:51:52;5.80;99.90
53599;DHT22;39485;45.702;11.364;2022-12-20T11:54:40;5.80;99.90
53599;DHT22;39485;45.702;11.364;2022-12-20T11:57:15;5.80;99.90
53599;DHT22;39485;45.702;11.364;2022-12-20T11:59:49;5.90;99.90
53599;DHT22;39485;45.702;11.364;2022-12-20T12:02:46;5.90;99.90
53599;DHT22;39485;45.702;11.364;2022-12-20T12:05:20;5.90;99.90
53599;DHT22;39485;45.702;11.364;2022-12-20T12:21:57;6.00;99.90
53599;DHT22;39485;45.702;11.364;2022-12-20T12:24:41;6.00;99.90
53599;DHT22;39485;45.702;11.364;2022-12-20T12:27:28;6.00;99.90
53599;DHT22;39485;45.702;11.364;2022-12-20T12:30:10;6.10;99.90
53599;DHT22;39485;45.702;11.364;2022-12-20T13:11:56;6.00;99.90
53599;DHT22;39485;45.702;11.364;2022-12-20T13:19:37;6.00;99.90
53599;DHT22;39485;45.702;11.364;2022-12-20T13:25:03;6.00;99.90
53599;DHT22;39485;45.702;11.364;2022-12-20T13:44:56;6.10;99.90
53599;DHT22;39485;45.702;11.364;2022-12-20T13:47:37;6.00;99.90
53599;DHT22;39485;45.702;11.364;2022-12-20T13:50:24;6.00;99.90
53599;DHT22;39485;45.702;11.364;2022-12-20T13:52:51;6.00;99.90
53599;DHT22;39485;45.702;11.364;2022-12-20T13:58:20;5.90;99.90
53599;DHT22;39485;45.702;11.364;2022-12-20T14:00:48;5.90;99.90
53599;DHT22;39485;45.702;11.364;2022-12-20T14:03:24;5.90;99.90
53599;DHT22;39485;45.702;11.364;2022-12-20T14:06:02;5.90;99.90
53599;DHT22;39485;45.702;11.364;2022-12-20T14:08:33;5.80;99.90
53599;DHT22;39485;45.702;11.364;2022-12-20T14:11:18;5.70;99.90
53599;DHT22;39485;45.702;11.364;2022-12-20T14:13:59;5.70;99.90
53599;DHT22;39485;45.702;11.364;2022-12-20T14:16:27;5.60;99.90
53599;DHT22;39485;45.702;11.364;2022-12-20T14:19:03;5.50;99.90
53599;DHT22;39485;45.702;11.364;2022-12-20T14:21:30;5.50;99.90
53599;DHT22;39485;45.702;11.364;2022-12-20T14:23:57;5.50;99.90
53599;DHT22;39485;45.702;11.364;2022-12-20T14:26:32;5.50;99.90
53599;DHT22;39485;45.702;11.364;2022-12-20T14:29:01;5.40;99.90
53599;DHT22;39485;45.702;11.364;2022-12-20T14:34:06;5.30;99.90
53599;DHT22;39485;45.702;11.364;2022-12-20T14:36:38;5.30;99.90
53599;DHT22;39485;45.702;11.364;2022-12-20T14:39:30;5.20;99.90
53599;DHT22;39485;45.702;11.364;2022-12-20T14:42:02;5.20;99.90
53599;DHT22;39485;45.702;11.364;2022-12-20T14:44:37;5.10;99.90
53599;DHT22;39485;45.702;11.364;2022-12-20T14:47:15;5.10;99.90
53599;DHT22;39485;45.702;11.364;2022-12-20T14:49:57;5.00;99.90
53599;DHT22;39485;45.702;11.364;2022-12-20T16:54:20;2.60;99.90
53599;DHT22;39485;45.702;11.364;2022-12-20T16:56:50;2.60;99.90
53599;DHT22;39485;45.702;11.364;2022-12-20T16:59:23;2.60;99.90
53599;DHT22;39485;45.702;11.364;2022-12-20T17:01:54;2.60;99.90
53599;DHT22;39485;45.702;11.364;2022-12-20T17:04:22;2.50;99.90
53599;DHT22;39485;45.702;11.364;2022-12-20T17:06:48;2.60;99.90
53599;DHT22;39485;45.702;11.364;2022-12-20T17:09:15;2.50;99.90
53599;DHT22;39485;45.702;11.364;2022-12-20T17:11:41;2.50;99.90
53599;DHT22;39485;45.702;11.364;2022-12-20T17:14:11;2.50;99.90
53599;DHT22;39485;45.702;11.364;2022-12-20T17:16:37;2.50;99.90
53599;DHT22;39485;45.702;11.364;2022-12-20T17:19:03;2.40;99.90
53599;DHT22;39485;45.702;11.364;2022-12-20T17:21:37;2.40;99.90
53599;DHT22;39485;45.702;11.364;2022-12-20T17:24:07;2.40;99.90
53599;DHT22;39485;45.702;11.364;2022-12-20T17:26:39;2.40;99.90
53599;DHT22;39485;45.702;11.364;2022-12-20T17:29:04;2.40;99.90
53599;DHT22;39485;45.702;11.364;2022-12-20T17:31:37;2.40;99.90
53599;DHT22;39485;45.702;11.364;2022-12-20T17:34:16;2.30;99.90
53599;DHT22;39485;45.702;11.364;2022-12-20T17:36:43;2.30;99.90
53599;DHT22;39485;45.702;11.364;2022-12-20T17:39:09;2.40;99.90
53599;DHT22;39485;45.702;11.364;2022-12-20T17:41:35;2.40;99.90
53599;DHT22;39485;45.702;11.364;2022-12-20T17:44:02;2.30;99.90
53599;DHT22;39485;45.702;11.364;2022-12-20T17:46:29;2.30;99.90
53599;DHT22;39485;45.702;11.364;2022-12-20T17:48:55;2.30;99.90
53599;DHT22;39485;45.702;11.364;2022-12-20T17:51:28;2.30;99.90
53599;DHT22;39485;45.702;11.364;2022-12-20T17:53:58;2.30;99.90
53599;DHT22;39485;45.702;11.364;2022-12-20T17:56:28;2.30;99.90
53599;DHT22;39485;45.702;11.364;2022-12-20T17:58:55;2.30;99.90
53599;DHT22;39485;45.702;11.364;2022-12-20T18:03:48;2.30;99.90
53599;DHT22;39485;45.702;11.364;2022-12-20T18:06:14;2.30;99.90
53599;DHT22;39485;45.702;11.364;2022-12-20T18:08:40;2.30;99.90
53599;DHT22;39485;45.702;11.364;2022-12-20T18:11:07;2.30;99.90
53599;DHT22;39485;45.702;11.364;2022-12-20T18:13:33;2.30;99.90
53599;DHT22;39485;45.702;11.364;2022-12-20T18:16:02;2.30;99.90
53599;DHT22;39485;45.702;11.364;2022-12-20T18:18:28;2.30;99.90
53599;DHT22;39485;45.702;11.364;2022-12-20T18:21:04;2.30;99.90
53599;DHT22;39485;45.702;11.364;2022-12-20T18:23:33;2.40;99.90
53599;DHT22;39485;45.702;11.364;2022-12-20T18:26:20;2.30;99.90
53599;DHT22;39485;45.702;11.364;2022-12-20T18:28:50;2.30;99.90
53599;DHT22;39485;45.702;11.364;2022-12-20T18:31:20;2.40;99.90
53599;DHT22;39485;45.702;11.364;2022-12-20T18:33:47;2.40;99.90
53599;DHT22;39485;45.702;11.364;2022-12-20T18:36:15;2.40;99.90
53599;DHT22;39485;45.702;11.364;2022-12-20T18:38:42;2.30;99.90
53599;DHT22;39485;45.702;11.364;2022-12-20T18:41:14;2.30;99.90
53599;DHT22;39485;45.702;11.364;2022-12-20T18:43:39;2.30;99.90
53599;DHT22;39485;45.702;11.364;2022-12-20T18:46:10;2.30;99.90
53599;DHT22;39485;45.702;11.364;2022-12-20T18:48:37;2.30;99.90
53599;DHT22;39485;45.702;11.364;2022-12-20T18:51:14;2.40;99.90
53599;DHT22;39485;45.702;11.364;2022-12-20T18:53:41;2.30;99.90
53599;DHT22;39485;45.702;11.364;2022-12-20T18:56:21;2.40;99.90
53599;DHT22;39485;45.702;11.364;2022-12-20T18:58:49;2.40;99.90
53599;DHT22;39485;45.702;11.364;2022-12-20T19:01:18;2.40;99.90
53599;DHT22;39485;45.702;11.364;2022-12-20T19:03:44;2.40;99.90
53599;DHT22;39485;45.702;11.364;2022-12-20T19:06:10;2.40;99.90
53599;DHT22;39485;45.702;11.364;2022-12-20T19:08:36;2.40;99.90
53599;DHT22;39485;45.702;11.364;2022-12-20T19:11:10;2.50;99.90
53599;DHT22;39485;45.702;11.364;2022-12-20T19:13:37;2.50;99.90
53599;DHT22;39485;45.702;11.364;2022-12-20T19:16:06;2.50;99.90
53599;DHT22;39485;45.702;11.364;2022-12-20T19:18:32;2.50;99.90
53599;DHT22;39485;45.702;11.364;2022-12-20T19:23:41;2.50;99.90
53599;DHT22;39485;45.702;11.364;2022-12-20T19:26:09;2.50;99.90
53599;DHT22;39485;45.702;11.364;2022-12-20T19:28:36;2.50;99.90
53599;DHT22;39485;45.702;11.364;2022-12-20T19:31:14;2.50;99.90
53599;DHT22;39485;45.702;11.364;2022-12-20T19:33:42;2.50;99.90
53599;DHT22;39485;45.702;11.364;2022-12-20T19:36:09;2.50;99.90
53599;DHT22;39485;45.702;11.364;2022-12-20T19:38:35;2.50;99.90
53599;DHT22;39485;45.702;11.364;2022-12-20T19:41:02;2.50;99.90
53599;DHT22;39485;45.702;11.364;2022-12-20T19:43:28;2.50;99.90
53599;DHT22;39485;45.702;11.364;2022-12-20T19:45:56;2.50;99.90
53599;DHT22;39485;45.702;11.364;2022-12-20T19:48:22;2.50;99.90
53599;DHT22;39485;45.702;11.364;2022-12-20T19:50:47;2.50;99.90
53599;DHT22;39485;45.702;11.364;2022-12-20T19:53:13;2.50;99.90
53599;DHT22;39485;45.702;11.364;2022-12-20T19:55:39;2.50;99.90
53599;DHT22;39485;45.702;11.364;2022-12-20T19:58:05;2.50;99.90
53599;DHT22;39485;45.702;11.364;2022-12-20T20:00:30;2.50;99.90
53599;DHT22;39485;45.702;11.364;2022-12-20T20:02:56;2.50;99.90
53599;DHT22;39485;45.702;11.364;2022-12-20T20:05:22;2.50;99.90
53599;DHT22;39485;45.702;11.364;2022-12-20T20:07:48;2.50;99.90
53599;DHT22;39485;45.702;11.364;2022-12-20T20:10:15;2.60;99.90
53599;DHT22;39485;45.702;11.364;2022-12-20T20:12:41;2.60;99.90
53599;DHT22;39485;45.702;11.364;2022-12-20T20:15:07;2.60;99.90
53599;DHT22;39485;45.702;11.364;2022-12-20T20:17:33;2.60;99.90